createdAt,value
2022-11-20T00:01:30.168Z,33.15
2022-11-20T00:04:01.697Z,32.00
2022-11-20T00:06:29.959Z,33.63
2022-11-20T00:09:01.074Z,34.17
2022-11-20T00:11:30.847Z,31.47
2022-11-20T00:14:01.165Z,33.27
2022-11-20T00:16:32.007Z,33.28
2022-11-20T00:21:29.196Z,24.33
2022-11-20T00:23:59.546Z,32.45
2022-11-20T00:26:29.251Z,30.33
2022-11-20T00:29:00.258Z,37.33
2022-11-20T00:31:28.643Z,32.07
2022-11-20T00:33:56.359Z,27.73
2022-11-20T00:36:27.267Z,28.90
2022-11-20T00:38:59.790Z,31.90
2022-11-20T00:41:29.260Z,30.57
2022-11-20T00:43:57.327Z,31.67
2022-11-20T00:46:28.170Z,25.80
2022-11-20T00:48:55.616Z,29.10
2022-11-20T00:51:27.225Z,31.77
2022-11-20T00:53:58.102Z,27.03
2022-11-20T00:56:25.355Z,27.60
2022-11-20T00:58:52.621Z,35.87
2022-11-20T01:01:25.345Z,32.37
2022-11-20T01:03:55.383Z,28.90
2022-11-20T01:06:35.339Z,31.30
2022-11-20T01:09:14.565Z,33.40
2022-11-20T01:11:45.477Z,28.77
2022-11-20T01:14:17.154Z,32.13
2022-11-20T01:16:50.449Z,33.13
2022-11-20T01:19:22.709Z,31.10
2022-11-20T01:21:53.856Z,28.50
2022-11-20T01:24:22.776Z,33.93
2022-11-20T01:26:52.373Z,35.37
2022-11-20T01:29:25.558Z,35.23
2022-11-20T01:31:53.874Z,29.27
2022-11-20T01:34:23.379Z,33.57
2022-11-20T01:36:51.443Z,29.07
2022-11-20T01:39:27.076Z,33.40
2022-11-20T01:42:15.301Z,32.23
2022-11-20T01:44:49.338Z,24.43
2022-11-20T01:47:39.450Z,28.67
2022-11-20T01:50:15.646Z,25.75
2022-11-20T01:53:00.703Z,27.00
2022-11-20T01:55:37.607Z,25.13
2022-11-20T01:58:05.944Z,31.07
2022-11-20T02:00:33.524Z,28.73
2022-11-20T02:03:11.435Z,33.57
2022-11-20T02:06:02.848Z,33.33
2022-11-20T02:08:30.667Z,30.07
2022-11-20T02:10:57.885Z,32.30
2022-11-20T02:13:43.829Z,33.67
2022-11-20T02:16:18.811Z,29.97
2022-11-20T02:18:47.358Z,28.03
2022-11-20T02:21:22.845Z,37.77
2022-11-20T02:24:04.834Z,28.33
2022-11-20T02:26:46.205Z,32.63
2022-11-20T02:29:14.592Z,32.37
2022-11-20T02:31:44.737Z,34.30
2022-11-20T02:34:12.353Z,35.38
2022-11-20T02:36:42.127Z,34.10
2022-11-20T02:39:13.194Z,33.80
2022-11-20T02:41:40.680Z,33.70
2022-11-20T02:44:07.810Z,38.40
2022-11-20T02:46:35.238Z,28.30
2022-11-20T02:49:05.052Z,37.67
2022-11-20T02:51:33.491Z,36.83
2022-11-20T02:54:00.717Z,34.93
2022-11-20T02:56:28.460Z,37.07
2022-11-20T02:58:56.571Z,39.27
2022-11-20T03:01:24.256Z,35.37
2022-11-20T03:03:51.560Z,36.77
2022-11-20T03:06:18.718Z,38.20
2022-11-20T03:08:45.883Z,36.00
2022-11-20T03:11:13.138Z,40.17
2022-11-20T03:13:40.507Z,46.43
2022-11-20T03:16:17.525Z,47.77
2022-11-20T03:18:45.364Z,43.33
2022-11-20T03:21:14.331Z,45.67
2022-11-20T03:23:41.827Z,42.07
2022-11-20T03:26:16.722Z,47.53
2022-11-20T03:28:50.388Z,47.67
2022-11-20T03:31:20.078Z,50.57
2022-11-20T03:33:47.442Z,48.07
2022-11-20T03:36:17.171Z,41.90
2022-11-20T03:38:44.636Z,48.20
2022-11-20T03:41:16.111Z,46.20
2022-11-20T03:43:43.351Z,37.40
2022-11-20T03:46:10.506Z,35.63
2022-11-20T03:48:37.780Z,40.53
2022-11-20T03:51:10.940Z,36.60
2022-11-20T03:53:38.694Z,34.70
2022-11-20T03:56:06.861Z,39.80
2022-11-20T03:58:37.185Z,37.53
2022-11-20T04:01:17.542Z,38.83
2022-11-20T04:03:46.257Z,44.53
2022-11-20T04:06:29.304Z,39.83
2022-11-20T04:08:58.617Z,34.37
2022-11-20T04:11:29.426Z,32.33
2022-11-20T04:14:02.436Z,37.30
2022-11-20T04:16:37.411Z,37.20
2022-11-20T04:19:07.990Z,33.47
2022-11-20T04:21:35.280Z,38.65
2022-11-20T04:24:02.772Z,36.43
2022-11-20T04:26:31.423Z,37.90
2022-11-20T04:28:59.537Z,30.53
2022-11-20T04:31:30.204Z,38.13
2022-11-20T04:34:04.626Z,35.88
2022-11-20T04:36:32.997Z,37.87
2022-11-20T04:39:04.499Z,41.93
2022-11-20T04:41:35.286Z,34.37
2022-11-20T04:44:05.782Z,42.17
2022-11-20T04:46:42.112Z,37.45
2022-11-20T04:49:10.055Z,34.10
2022-11-20T04:51:37.363Z,32.13
2022-11-20T04:54:04.918Z,33.50
2022-11-20T04:56:32.276Z,39.27
2022-11-20T04:59:03.217Z,35.53
2022-11-20T05:01:31.366Z,34.80
2022-11-20T05:03:58.642Z,34.03
2022-11-20T05:06:25.795Z,36.23
2022-11-20T05:08:53.102Z,34.97
2022-11-20T05:11:22.361Z,35.43
2022-11-20T05:13:51.188Z,25.50
2022-11-20T05:16:24.134Z,24.63
2022-11-20T05:18:54.329Z,28.10
2022-11-20T05:21:21.947Z,26.05
2022-11-20T05:23:49.419Z,32.30
2022-11-20T05:26:20.810Z,36.43
2022-11-20T05:28:48.688Z,30.63
2022-11-20T05:31:26.177Z,31.43
2022-11-20T05:33:54.820Z,36.13
2022-11-20T05:36:22.294Z,32.93
2022-11-20T05:38:51.122Z,32.47
2022-11-20T05:41:21.277Z,36.13
2022-11-20T05:43:50.790Z,33.50
2022-11-20T05:46:27.757Z,35.20
2022-11-20T05:48:57.632Z,39.23
2022-11-20T05:51:25.805Z,39.37
2022-11-20T05:53:53.083Z,35.57
2022-11-20T05:56:22.353Z,44.67
2022-11-20T05:58:50.173Z,46.07
2022-11-20T06:01:24.886Z,53.33
2022-11-20T06:03:53.701Z,39.90
2022-11-20T06:06:21.474Z,37.27
2022-11-20T06:08:49.540Z,28.27
2022-11-20T06:11:17.574Z,30.80
2022-11-20T06:13:46.415Z,33.77
2022-11-20T06:16:17.390Z,37.23
2022-11-20T06:18:44.750Z,35.77
2022-11-20T06:21:19.118Z,34.67
2022-11-20T06:23:47.439Z,38.83
2022-11-20T06:26:20.847Z,31.40
2022-11-20T06:28:48.545Z,38.83
2022-11-20T06:31:18.745Z,37.30
2022-11-20T06:33:46.451Z,36.15
2022-11-20T06:36:17.033Z,36.87
2022-11-20T06:38:44.663Z,38.72
2022-11-20T06:41:21.806Z,43.57
2022-11-20T06:43:50.287Z,37.50
2022-11-20T06:46:19.688Z,40.60
2022-11-20T06:48:48.657Z,38.57
2022-11-20T06:51:16.383Z,42.93
2022-11-20T06:53:43.651Z,39.90
2022-11-20T06:56:11.356Z,42.07
2022-11-20T06:58:38.836Z,40.40
2022-11-20T07:01:10.842Z,39.80
2022-11-20T07:03:39.053Z,37.90
2022-11-20T07:06:06.965Z,38.87
2022-11-20T07:08:35.055Z,36.30
2022-11-20T07:11:07.885Z,39.00
2022-11-20T07:13:35.410Z,41.10
2022-11-20T07:16:05.789Z,38.10
2022-11-20T07:18:33.286Z,40.63
2022-11-20T07:21:10.524Z,39.00
2022-11-20T07:23:38.417Z,38.73
2022-11-20T07:26:11.375Z,37.53
2022-11-20T07:28:39.132Z,36.67
2022-11-20T07:31:08.402Z,40.97
2022-11-20T07:33:35.777Z,39.50
2022-11-20T07:36:03.211Z,35.17
2022-11-20T07:38:30.511Z,32.70
2022-11-20T07:40:58.859Z,43.93
2022-11-20T07:43:26.696Z,36.13
2022-11-20T07:45:57.029Z,34.37
2022-11-20T07:48:25.517Z,38.38
2022-11-20T07:50:59.186Z,38.93
2022-11-20T07:53:26.442Z,38.00
2022-11-20T07:55:53.912Z,37.80
2022-11-20T07:58:22.589Z,38.10
2022-11-20T08:00:50.141Z,36.37
2022-11-20T08:03:24.136Z,33.47
2022-11-20T08:05:52.784Z,41.60
2022-11-20T08:08:20.277Z,45.83
2022-11-20T08:10:47.628Z,41.07
2022-11-20T08:13:33.242Z,36.83
2022-11-20T08:16:00.604Z,37.27
2022-11-20T08:18:32.397Z,41.97
2022-11-20T08:21:06.386Z,38.67
2022-11-20T08:23:33.928Z,39.23
2022-11-20T08:26:01.229Z,31.37
2022-11-20T08:28:28.455Z,38.17
2022-11-20T08:31:02.987Z,40.27
2022-11-20T08:33:31.124Z,40.03
2022-11-20T08:36:03.571Z,36.63
2022-11-20T08:38:32.126Z,41.90
2022-11-20T08:41:23.098Z,31.57
2022-11-20T08:46:18.890Z,38.60
2022-11-20T08:48:46.636Z,42.30
2022-11-20T08:51:14.780Z,44.23
2022-11-20T08:53:42.570Z,40.23
2022-11-20T08:56:13.419Z,30.30
2022-11-20T09:01:29.343Z,28.83
2022-11-20T09:04:00.909Z,29.17
2022-11-20T09:06:28.255Z,31.27
2022-11-20T09:08:55.966Z,37.37
2022-11-20T09:11:23.664Z,28.43
2022-11-20T09:13:51.728Z,30.43
2022-11-20T09:16:19.122Z,27.00
2022-11-20T09:18:46.684Z,32.97
2022-11-20T09:21:15.257Z,36.87
2022-11-20T09:23:42.736Z,36.53
2022-11-20T09:26:15.160Z,35.80
2022-11-20T09:28:42.646Z,36.40
2022-11-20T09:31:20.811Z,39.10
2022-11-20T09:33:48.167Z,51.70
2022-11-20T09:36:15.591Z,42.47
2022-11-20T09:38:42.851Z,48.83
2022-11-20T09:41:51.679Z,42.33
2022-11-20T09:44:41.274Z,39.83
2022-11-20T09:48:04.671Z,48.37
2022-11-20T09:50:49.006Z,43.65
2022-11-20T09:53:38.082Z,40.20
2022-11-20T09:56:06.189Z,45.45
2022-11-20T09:58:44.861Z,41.15
2022-11-20T10:01:35.404Z,41.72
2022-11-20T10:04:17.935Z,50.15
2022-11-20T10:10:02.028Z,48.92
2022-11-20T10:12:35.003Z,43.45
2022-11-20T10:15:24.862Z,45.45
2022-11-20T10:18:12.805Z,42.22
2022-11-20T10:21:34.816Z,38.20
2022-11-20T10:25:06.036Z,40.05
2022-11-20T10:30:36.131Z,53.42
2022-11-20T10:33:23.483Z,36.72
2022-11-20T10:36:13.964Z,36.47
2022-11-20T10:38:55.637Z,40.92
2022-11-20T10:41:38.182Z,37.78
2022-11-20T10:44:39.643Z,38.85
2022-11-20T10:47:12.865Z,43.10
2022-11-20T10:49:41.495Z,40.60
2022-11-20T10:52:27.118Z,38.15
2022-11-20T10:55:34.391Z,34.33
2022-11-20T10:58:15.650Z,38.38
2022-11-20T11:00:43.371Z,36.08
2022-11-20T11:03:28.500Z,38.92
2022-11-20T11:06:30.915Z,38.65
2022-11-20T11:09:02.449Z,36.00
2022-11-20T11:11:34.455Z,36.05
2022-11-20T11:14:11.203Z,37.15
2022-11-20T11:16:52.443Z,33.67
2022-11-20T11:19:20.198Z,31.45
2022-11-20T11:21:57.673Z,39.05
2022-11-20T11:24:46.278Z,30.83
2022-11-20T11:27:18.936Z,34.70
2022-11-20T11:29:47.948Z,31.70
2022-11-20T11:32:21.718Z,30.55
2022-11-20T11:35:22.150Z,32.08
2022-11-20T11:37:50.237Z,28.13
2022-11-20T11:40:24.785Z,31.73
2022-11-20T11:43:01.105Z,26.27
2022-11-20T11:45:28.862Z,29.60
2022-11-20T11:48:01.816Z,27.52
2022-11-20T11:50:32.067Z,26.27
2022-11-20T11:53:14.303Z,27.33
2022-11-20T11:56:03.449Z,25.50
2022-11-20T11:58:44.865Z,25.65
2022-11-20T12:01:36.047Z,30.13
2022-11-20T12:04:43.373Z,25.45
2022-11-20T12:07:45.638Z,29.80
2022-11-20T12:10:49.630Z,26.13
2022-11-20T12:13:26.602Z,24.27
2022-11-20T12:15:55.105Z,23.70
2022-11-20T12:18:24.007Z,27.15
2022-11-20T12:21:12.155Z,23.45
2022-11-20T12:24:09.825Z,21.08
2022-11-20T12:27:21.250Z,19.13
2022-11-20T12:30:14.292Z,22.70
2022-11-20T12:33:23.030Z,20.83
2022-11-20T12:36:45.176Z,21.02
2022-11-20T12:39:39.533Z,21.55
2022-11-20T12:42:37.994Z,23.05
2022-11-20T12:45:35.814Z,20.30
2022-11-20T12:48:34.302Z,25.88
2022-11-20T12:51:19.847Z,21.80
2022-11-20T12:54:00.389Z,22.00
2022-11-20T12:56:53.850Z,20.70
2022-11-20T12:59:51.369Z,21.58
2022-11-20T13:02:28.870Z,21.48
2022-11-20T13:05:59.506Z,17.27
2022-11-20T13:08:34.531Z,13.68
2022-11-20T13:11:32.876Z,15.05
2022-11-20T13:14:00.058Z,18.17
2022-11-20T13:16:39.598Z,17.92
2022-11-20T13:19:12.278Z,14.70
2022-11-20T13:21:50.388Z,21.50
2022-11-20T13:24:21.047Z,17.95
2022-11-20T13:26:48.704Z,18.23
2022-11-20T13:29:20.681Z,19.17
2022-11-20T13:31:49.385Z,20.55
2022-11-20T13:34:27.877Z,19.52
2022-11-20T13:36:58.020Z,21.52
2022-11-20T13:39:32.800Z,18.00
2022-11-20T13:42:22.954Z,20.67
2022-11-20T13:45:01.497Z,16.27
2022-11-20T13:47:30.598Z,16.38
2022-11-20T13:50:00.513Z,20.90
2022-11-20T13:52:39.568Z,21.52
2022-11-20T13:55:47.515Z,20.88
2022-11-20T13:59:21.986Z,15.70
2022-11-20T14:01:51.548Z,21.48
2022-11-20T14:04:30.167Z,21.65
2022-11-20T14:06:58.574Z,21.65
2022-11-20T14:09:30.069Z,19.90
2022-11-20T14:11:58.328Z,27.33
2022-11-20T14:14:31.119Z,32.15
2022-11-20T14:17:27.784Z,37.15
2022-11-20T14:19:59.742Z,36.65
2022-11-20T14:22:28.531Z,29.20
2022-11-20T14:25:19.426Z,22.35
2022-11-20T14:30:23.779Z,22.50
2022-11-20T14:32:55.572Z,20.60
2022-11-20T14:35:31.373Z,23.35
2022-11-20T14:37:59.495Z,21.98
2022-11-20T14:40:36.991Z,22.33
2022-11-20T14:43:24.281Z,21.83
2022-11-20T14:46:01.923Z,20.40
2022-11-20T14:48:46.576Z,19.67
2022-11-20T14:51:43.863Z,21.02
2022-11-20T14:54:23.629Z,22.40
2022-11-20T14:57:02.797Z,17.60
2022-11-20T14:59:36.060Z,20.95
2022-11-20T15:02:22.605Z,30.20
2022-11-20T15:04:57.448Z,28.55
2022-11-20T15:07:37.952Z,22.65
2022-11-20T15:10:08.827Z,22.25
2022-11-20T15:15:21.867Z,25.25
2022-11-20T15:17:49.169Z,19.55
2022-11-20T15:20:18.419Z,19.05
2022-11-20T15:22:45.944Z,21.88
2022-11-20T15:25:18.935Z,22.88
2022-11-20T15:27:50.508Z,18.52
2022-11-20T15:30:21.009Z,17.65
2022-11-20T15:32:49.214Z,22.92
2022-11-20T15:35:17.389Z,28.92
2022-11-20T15:37:45.156Z,23.70
2022-11-20T15:40:13.055Z,24.00
2022-11-20T15:43:00.391Z,22.50
2022-11-20T15:45:41.208Z,21.58
2022-11-20T15:51:12.860Z,23.42
2022-11-20T15:53:42.502Z,22.00
2022-11-20T15:56:14.467Z,23.75
2022-11-20T15:58:42.813Z,27.25
2022-11-20T16:01:16.361Z,22.75
2022-11-20T16:03:43.825Z,27.30
2022-11-20T16:06:11.087Z,30.98
2022-11-20T16:08:38.375Z,29.90
2022-11-20T16:11:06.072Z,36.65
2022-11-20T16:13:52.521Z,27.27
2022-11-20T16:16:33.991Z,27.38
2022-11-20T16:19:01.478Z,29.77
2022-11-20T16:21:32.171Z,32.45
2022-11-20T16:24:06.605Z,36.22
2022-11-20T16:26:35.037Z,37.70
2022-11-20T16:29:04.469Z,40.63
2022-11-20T16:31:32.473Z,42.10
2022-11-20T16:34:11.868Z,35.97
2022-11-20T16:36:44.679Z,50.15
2022-11-20T16:39:13.191Z,38.37
2022-11-20T16:41:40.550Z,40.33
2022-11-20T16:44:11.135Z,32.70
2022-11-20T16:46:39.219Z,36.40
2022-11-20T16:49:14.218Z,41.83
2022-11-20T16:51:41.920Z,33.57
2022-11-20T16:54:10.596Z,38.87
2022-11-20T16:56:39.393Z,37.20
2022-11-20T16:59:07.589Z,39.87
2022-11-20T17:01:38.727Z,33.53
2022-11-20T17:04:07.522Z,40.17
2022-11-20T17:06:39.019Z,29.10
2022-11-20T17:09:09.566Z,32.53
2022-11-20T17:11:37.740Z,31.42
2022-11-20T17:14:09.148Z,32.43
2022-11-20T17:16:37.509Z,34.65
2022-11-20T17:19:05.540Z,39.37
2022-11-20T17:21:36.403Z,37.90
2022-11-20T17:24:07.001Z,33.63
2022-11-20T17:26:35.646Z,37.97
2022-11-20T17:29:10.660Z,37.23
2022-11-20T17:31:39.086Z,32.63
2022-11-20T17:34:08.586Z,36.43
2022-11-20T17:36:37.705Z,29.10
2022-11-20T17:39:08.451Z,30.25
2022-11-20T17:41:35.810Z,32.33
2022-11-20T17:44:03.311Z,34.53
2022-11-20T17:46:33.508Z,32.40
2022-11-20T17:49:02.256Z,40.13
2022-11-20T17:51:32.995Z,42.03
2022-11-20T17:54:03.984Z,42.78
2022-11-20T17:56:53.966Z,36.03
2022-11-20T17:59:21.887Z,41.42
2022-11-20T18:01:49.516Z,41.40
2022-11-20T18:04:17.374Z,37.27
2022-11-20T18:06:44.656Z,46.03
2022-11-20T18:09:12.687Z,42.67
2022-11-20T18:11:42.208Z,40.50
2022-11-20T18:14:34.823Z,52.83
2022-11-20T18:17:03.697Z,50.43
2022-11-20T18:19:37.614Z,37.30
2022-11-20T18:22:09.036Z,38.63
2022-11-20T18:24:37.485Z,38.97
2022-11-20T18:27:06.187Z,34.47
2022-11-20T18:29:34.315Z,35.30
2022-11-20T18:32:02.067Z,38.87
2022-11-20T18:34:29.685Z,41.80
2022-11-20T18:36:57.779Z,46.10
2022-11-20T18:39:25.194Z,53.40
2022-11-20T18:42:11.892Z,47.53
2022-11-20T18:44:51.504Z,44.23
2022-11-20T18:47:23.086Z,50.00
2022-11-20T18:49:57.268Z,49.77
2022-11-20T18:52:53.501Z,44.03
2022-11-20T18:55:24.368Z,43.97
2022-11-20T19:00:19.120Z,51.00
2022-11-20T19:02:46.542Z,47.07
2022-11-20T19:05:15.157Z,38.70
2022-11-20T19:07:43.449Z,40.47
2022-11-20T19:10:11.109Z,39.70
2022-11-20T19:12:38.507Z,39.40
2022-11-20T19:15:06.713Z,41.43
2022-11-20T19:17:34.640Z,40.93
2022-11-20T19:20:01.973Z,42.37
2022-11-20T19:22:29.317Z,40.17
2022-11-20T19:24:56.698Z,44.70
2022-11-20T19:27:24.213Z,43.10
2022-11-20T19:29:51.447Z,44.60
2022-11-20T19:32:18.739Z,44.80
2022-11-20T19:34:46.033Z,46.23
2022-11-20T19:37:13.320Z,46.27
2022-11-20T19:39:40.557Z,40.97
2022-11-20T19:42:07.797Z,41.43
2022-11-20T19:44:35.245Z,41.63
2022-11-20T19:47:08.880Z,47.10
2022-11-20T19:49:37.636Z,38.37
2022-11-20T19:52:05.192Z,39.07
2022-11-20T19:54:32.358Z,37.67
2022-11-20T19:56:59.575Z,38.90
2022-11-20T19:59:27.205Z,35.40
2022-11-20T20:01:54.635Z,37.97
2022-11-20T20:04:22.065Z,40.70
2022-11-20T20:06:50.773Z,36.90
2022-11-20T20:09:18.059Z,41.67
2022-11-20T20:11:47.157Z,36.57
2022-11-20T20:14:16.734Z,35.93
2022-11-20T20:16:44.303Z,35.17
2022-11-20T20:19:15.895Z,45.50
2022-11-20T20:21:44.433Z,32.90
2022-11-20T20:24:12.539Z,37.30
2022-11-20T20:26:40.181Z,35.03
2022-11-20T20:29:07.529Z,40.22
2022-11-20T20:31:35.875Z,34.60
2022-11-20T20:34:05.334Z,38.17
2022-11-20T20:36:33.014Z,40.60
2022-11-20T20:39:00.452Z,35.43
2022-11-20T20:41:27.865Z,41.00
2022-11-20T20:44:13.699Z,43.97
2022-11-20T20:46:41.581Z,36.97
2022-11-20T20:49:09.468Z,31.95
2022-11-20T20:51:36.918Z,36.45
2022-11-20T20:54:05.321Z,39.22
2022-11-20T20:56:32.856Z,33.78
2022-11-20T20:59:00.198Z,33.28
2022-11-20T21:01:30.623Z,31.87
2022-11-20T21:03:58.466Z,35.97
2022-11-20T21:06:26.333Z,29.88
2022-11-20T21:08:54.233Z,35.00
2022-11-20T21:11:21.536Z,29.60
2022-11-20T21:13:49.881Z,23.23
2022-11-20T21:16:20.563Z,21.70
2022-11-20T21:18:48.073Z,22.20
2022-11-20T21:21:35.549Z,22.90
2022-11-20T21:24:03.871Z,18.00
2022-11-20T21:26:31.141Z,18.80
2022-11-20T21:28:58.505Z,18.65
2022-11-20T21:31:27.416Z,18.90
2022-11-20T21:33:56.952Z,16.50
2022-11-20T21:36:32.095Z,15.88
2022-11-20T21:39:00.167Z,16.67
2022-11-20T21:41:30.542Z,17.20
2022-11-20T21:46:47.377Z,19.30
2022-11-20T21:49:15.366Z,23.63
2022-11-20T21:51:42.821Z,18.35
2022-11-20T21:54:11.644Z,19.37
2022-11-20T21:56:39.240Z,20.70
2022-11-20T21:59:06.514Z,19.60
2022-11-20T22:01:36.745Z,20.97
2022-11-20T22:04:04.166Z,22.40
2022-11-20T22:06:34.098Z,27.30
2022-11-20T22:09:03.082Z,20.92
2022-11-20T22:11:31.062Z,23.07
2022-11-20T22:14:17.527Z,21.30
2022-11-20T22:16:44.722Z,27.02
2022-11-20T22:19:15.313Z,27.27
2022-11-20T22:21:43.034Z,28.88
2022-11-20T22:24:14.942Z,27.40
2022-11-20T22:26:42.686Z,25.97
2022-11-20T22:29:16.754Z,32.27
2022-11-20T22:31:44.062Z,28.10
2022-11-20T22:34:13.418Z,29.30
2022-11-20T22:36:41.687Z,32.53
2022-11-20T22:39:09.459Z,36.60
2022-11-20T22:41:36.798Z,41.60
2022-11-20T22:44:08.260Z,38.20
2022-11-20T22:46:37.654Z,47.67
2022-11-20T22:49:08.655Z,41.47
2022-11-20T22:51:39.337Z,36.57
2022-11-20T22:54:07.576Z,35.38
2022-11-20T22:56:35.188Z,40.03
2022-11-20T22:59:02.740Z,39.07
2022-11-20T23:01:35.386Z,43.63
2022-11-20T23:04:06.733Z,30.20
2022-11-20T23:06:37.102Z,33.80
2022-11-20T23:09:06.296Z,33.92
2022-11-20T23:11:35.234Z,33.28
2022-11-20T23:14:12.259Z,33.90
2022-11-20T23:16:39.817Z,35.13
2022-11-20T23:19:10.683Z,27.30
2022-11-20T23:24:07.987Z,31.33
2022-11-20T23:26:38.921Z,32.30
2022-11-20T23:29:06.872Z,26.53
2022-11-20T23:31:35.767Z,27.30
2022-11-20T23:34:03.509Z,27.93
2022-11-20T23:36:31.403Z,29.10
2022-11-20T23:38:58.706Z,28.73
2022-11-20T23:41:26.053Z,28.47
2022-11-20T23:43:53.931Z,28.50
2022-11-20T23:46:21.288Z,33.23
2022-11-20T23:48:48.610Z,29.00
2022-11-20T23:51:15.906Z,31.57
2022-11-20T23:53:43.531Z,35.50
2022-11-20T23:56:14.615Z,32.80
2022-11-20T23:58:42.643Z,34.60
